Time;durP1;ratioP1;P1;durP2;ratioP2;P2;SDS_P1;SDS_P2;PMS_P1;PMS_P2;Temp;Humidity;BMP_temperature;BMP_pressure;BME280_temperature;BME280_humidity;BME280_pressure;Samples;Min_cycle;Max_cycle;Signal;HPM_P1;HPM_P2
2023/04/02 00:00:10;;;;;;;23.35;13.25;;;;;;;7.04;100.00;101251.41;10375038;28;20038;-75
2023/04/02 00:05:18;;;;;;;16.58;12.45;;;;;;;6.95;100.00;101269.41;10374909;28;20125;-76
2023/04/02 00:10:27;;;;;;;14.73;9.85;;;;;;;6.83;100.00;101274.25;10375248;28;20025;-74
2023/04/02 00:15:28;;;;;;;15.45;8.95;;;;;;;6.79;100.00;101274.75;10374191;28;20036;-75
2023/04/02 00:20:30;;;;;;;10.95;9.63;;;;;;;6.75;100.00;101287.69;10373242;28;20033;-76
2023/04/02 00:25:41;;;;;;;16.48;10.10;;;;;;;6.83;100.00;101290.41;10372569;28;20472;-75
2023/04/02 00:30:52;;;;;;;15.68;11.63;;;;;;;6.84;100.00;101305.56;10385678;28;20038;-75
2023/04/02 00:35:53;;;;;;;12.18;9.45;;;;;;;6.81;100.00;101321.19;10402559;28;20038;-75
2023/04/02 00:40:55;;;;;;;12.23;8.93;;;;;;;6.67;100.00;101323.50;10387639;28;20473;-76
2023/04/02 00:45:58;;;;;;;11.10;7.88;;;;;;;6.60;100.00;101326.97;10402223;28;20133;-75
2023/04/02 00:51:34;;;;;;;16.15;8.40;;;;;;;6.44;100.00;101341.19;10402794;28;20030;-75
2023/04/02 00:56:39;;;;;;;13.50;9.53;;;;;;;6.44;100.00;101346.56;10383283;28;20045;-76
2023/04/02 01:01:41;;;;;;;9.35;8.45;;;;;;;6.44;100.00;101360.84;10402019;28;20040;-77
2023/04/02 01:06:42;;;;;;;10.35;7.25;;;;;;;6.43;100.00;101364.56;10386364;28;20033;-75
2023/04/02 01:12:01;;;;;;;10.10;6.47;;;;;;;6.42;100.00;101379.03;10385894;28;20049;-75
2023/04/02 01:17:19;;;;;;;7.60;6.47;;;;;;;6.28;100.00;101388.50;10386985;28;20515;-75
2023/04/02 01:22:33;;;;;;;7.30;6.55;;;;;;;6.29;100.00;101395.59;10386470;28;20367;-77
2023/04/02 01:27:38;;;;;;;14.35;8.30;;;;;;;6.24;100.00;101405.13;10386371;28;20083;-75
2023/04/02 01:32:39;;;;;;;10.23;6.72;;;;;;;6.22;100.00;101405.28;10401377;28;20076;-75
2023/04/02 01:38:17;;;;;;;12.80;7.45;;;;;;;6.18;100.00;101411.13;10401577;28;20466;-75
2023/04/02 01:43:23;;;;;;;8.13;5.68;;;;;;;6.13;100.00;101425.03;10358135;28;20042;-75
2023/04/02 01:48:26;;;;;;;10.27;7.47;;;;;;;6.18;100.00;101420.03;10393899;28;20033;-74
2023/04/02 01:53:27;;;;;;;11.05;5.65;;;;;;;6.05;100.00;101441.09;10394294;28;20034;-76
2023/04/02 01:58:30;;;;;;;8.75;6.22;;;;;;;6.06;100.00;101448.16;10394236;28;20469;-75
2023/04/02 02:03:30;;;;;;;8.60;7.32;;;;;;;6.08;100.00;101450.69;10378118;28;20088;-75
2023/04/02 02:08:40;;;;;;;13.45;8.05;;;;;;;6.13;100.00;101461.84;10394489;28;20501;-74
2023/04/02 02:13:45;;;;;;;9.27;8.07;;;;;;;6.13;100.00;101469.91;10392218;28;20033;-76
2023/04/02 02:18:48;;;;;;;12.52;8.30;;;;;;;6.15;100.00;101471.44;10393895;28;20041;-75
2023/04/02 02:23:49;;;;;;;8.23;6.03;;;;;;;6.12;100.00;101482.50;10377938;28;20034;-76
2023/04/02 02:28:49;;;;;;;9.82;7.20;;;;;;;6.08;100.00;101494.56;10378905;28;20469;-75
2023/04/02 02:33:51;;;;;;;10.85;7.75;;;;;;;6.06;100.00;101501.91;10393020;28;20462;-75
2023/04/02 02:39:16;;;;;;;12.48;6.45;;;;;;;6.10;100.00;101503.31;10393829;28;20022;-75
2023/04/02 02:44:23;;;;;;;13.25;8.85;;;;;;;6.05;100.00;101508.31;10377127;28;20083;-75
2023/04/02 02:49:29;;;;;;;14.02;8.25;;;;;;;6.05;100.00;101522.59;10377576;28;20033;-74
2023/04/02 02:54:30;;;;;;;8.05;7.20;;;;;;;5.98;100.00;101537.66;10391959;28;20034;-75
2023/04/02 02:59:30;;;;;;;8.70;6.95;;;;;;;5.97;100.00;101545.88;10376625;28;20041;-75
2023/04/02 03:04:34;;;;;;;14.00;8.23;;;;;;;6.02;100.00;101554.31;10393146;28;20037;-75
2023/04/02 03:09:40;;;;;;;14.48;6.43;;;;;;;5.92;100.00;101558.88;10374951;28;20038;-75
2023/04/02 03:15:04;;;;;;;17.50;8.55;;;;;;;5.89;100.00;101570.78;10374797;28;20092;-74
2023/04/02 03:20:13;;;;;;;7.80;6.32;;;;;;;5.86;100.00;101586.38;10373819;28;20041;-75
2023/04/02 03:25:35;;;;;;;7.05;6.35;;;;;;;5.87;100.00;101594.28;10391305;28;20052;-76
2023/04/02 03:30:48;;;;;;;8.18;6.95;;;;;;;5.59;100.00;101582.69;10392160;28;20060;-77
2023/04/02 03:36:02;;;;;;;8.07;6.70;;;;;;;5.55;100.00;101616.19;10374151;28;20109;-75
2023/04/02 03:41:29;;;;;;;12.45;7.10;;;;;;;5.40;100.00;101623.06;10374553;28;20534;-76
2023/04/02 03:46:30;;;;;;;9.05;6.97;;;;;;;5.44;100.00;101643.25;10386699;28;20046;-75
2023/04/02 03:52:01;;;;;;;12.82;7.35;;;;;;;5.39;100.00;101658.94;10391192;28;20459;-77
2023/04/02 03:57:02;;;;;;;9.73;6.32;;;;;;;5.24;100.00;101672.84;10388711;28;20048;-75
2023/04/02 04:02:11;;;;;;;7.15;6.40;;;;;;;5.23;100.00;101676.53;10390233;28;20052;-75
2023/04/02 04:07:37;;;;;;;8.15;7.40;;;;;;;5.20;100.00;101678.63;10374215;28;20030;-75
2023/04/02 04:12:47;;;;;;;8.25;6.93;;;;;;;5.18;100.00;101697.56;10372893;28;20033;-77
2023/04/02 04:17:55;;;;;;;8.77;6.90;;;;;;;5.18;100.00;101699.41;10373402;28;20483;-75
2023/04/02 04:22:56;;;;;;;7.53;6.03;;;;;;;5.08;100.00;101710.16;10374066;28;20096;-74
2023/04/02 04:28:20;;;;;;;7.47;5.05;;;;;;;4.93;100.00;101720.47;10372834;28;20029;-75
2023/04/02 04:33:25;;;;;;;7.35;6.65;;;;;;;4.97;100.00;101734.44;10387978;28;20478;-74
2023/04/02 04:38:31;;;;;;;8.82;7.25;;;;;;;4.99;100.00;101736.00;10388184;28;20026;-75
2023/04/02 04:43:45;;;;;;;7.78;6.93;;;;;;;5.06;100.00;101749.72;10388437;28;20446;-75
2023/04/02 04:49:08;;;;;;;8.60;7.25;;;;;;;4.98;100.00;101747.75;10373663;28;20038;-76
2023/04/02 04:54:11;;;;;;;11.00;8.05;;;;;;;4.96;100.00;101770.34;10388433;28;20041;-76
2023/04/02 04:59:16;;;;;;;12.18;8.68;;;;;;;4.93;100.00;101782.19;10388462;28;20402;-74
2023/04/02 05:04:34;;;;;;;8.05;7.30;;;;;;;4.78;100.00;101789.78;10388429;28;20446;-75
2023/04/02 05:09:53;;;;;;;6.45;5.75;;;;;;;4.62;100.00;101802.88;10355549;28;20117;-75
2023/04/02 05:15:23;;;;;;;10.02;6.03;;;;;;;4.60;100.00;101815.59;10388840;28;20485;-77
2023/04/02 05:20:25;;;;;;;4.80;4.38;;;;;;;4.48;100.00;101836.28;10377223;28;20382;-75
2023/04/02 05:25:30;;;;;;;8.02;7.18;;;;;;;4.49;100.00;101837.13;10379664;28;20458;-75
2023/04/02 05:30:37;;;;;;;5.75;5.25;;;;;;;4.52;100.00;101847.59;10380271;28;20050;-75
2023/04/02 05:35:40;;;;;;;8.27;6.07;;;;;;;4.55;100.00;101863.44;10395555;28;20446;-76
2023/04/02 05:40:42;;;;;;;6.72;5.60;;;;;;;4.54;100.00;101872.47;10380455;28;20109;-76
2023/04/02 05:45:44;;;;;;;6.70;5.47;;;;;;;4.38;100.00;101881.84;10395606;28;20038;-75
2023/04/02 05:50:47;;;;;;;7.82;6.75;;;;;;;4.33;100.00;101889.41;10394753;28;20400;-75
2023/04/02 05:56:02;;;;;;;8.50;5.15;;;;;;;4.28;100.00;101893.50;10394463;28;20038;-75
2023/04/02 06:01:39;;;;;;;13.32;7.18;;;;;;;4.47;100.00;101906.16;10378915;28;20081;-75
2023/04/02 06:06:42;;;;;;;7.40;6.45;;;;;;;4.46;100.00;101924.06;10355113;28;20041;-75
2023/04/02 06:11:45;;;;;;;7.68;6.32;;;;;;;4.32;100.00;101944.03;10378909;28;20026;-74
2023/04/02 06:16:45;;;;;;;6.18;5.53;;;;;;;3.95;100.00;101957.88;10393689;28;20093;-75
2023/04/02 06:21:48;;;;;;;7.97;5.72;;;;;;;3.95;100.00;101976.63;10376750;28;20454;-75
2023/04/02 06:26:56;;;;;;;5.68;4.38;;;;;;;3.91;100.00;101982.38;10377633;28;20121;-75
2023/04/02 06:32:00;;;;;;;16.05;6.75;;;;;;;3.70;100.00;101990.34;10392826;28;20042;-75
2023/04/02 06:37:30;;;;;;;8.85;5.05;;;;;;;3.76;100.00;102005.06;10375950;28;20489;-75
2023/04/02 06:42:35;;;;;;;13.13;6.45;;;;;;;3.85;100.00;102007.84;10374716;28;20041;-76
2023/04/02 06:47:37;;;;;;;11.73;4.63;;;;;;;3.78;100.00;102029.91;10302583;28;20118;-76
2023/04/02 06:52:43;;;;;;;5.45;4.97;;;;;;;3.62;100.00;102028.50;10393091;28;20120;-75
2023/04/02 06:57:43;;;;;;;7.70;4.67;;;;;;;3.45;100.00;102043.25;10392524;28;20037;-75
2023/04/02 07:02:44;;;;;;;13.75;5.20;;;;;;;3.57;100.00;102043.22;10377545;28;20041;-76
2023/04/02 07:07:44;;;;;;;7.95;5.18;;;;;;;3.60;100.00;102061.72;10375156;28;20025;-76
2023/04/02 07:12:45;;;;;;;9.30;5.35;;;;;;;3.57;100.00;102076.22;10374708;28;20033;-75
2023/04/02 07:17:46;;;;;;;6.35;4.45;;;;;;;3.47;100.00;102094.00;10390981;28;20478;-75
2023/04/02 07:22:46;;;;;;;11.60;5.20;;;;;;;3.48;100.00;102098.41;10375207;28;20042;-75
2023/04/02 07:27:46;;;;;;;7.30;3.58;;;;;;;3.65;100.00;102105.91;10375159;28;20581;-75
2023/04/02 07:32:47;;;;;;;3.67;2.85;;;;;;;3.86;100.00;102100.69;10375786;28;20120;-77
2023/04/02 07:37:47;;;;;;;10.82;5.40;;;;;;;3.75;100.00;102124.78;10374940;28;20044;-76
2023/04/02 07:42:48;;;;;;;5.28;4.13;;;;;;;3.61;100.00;102128.56;10373855;28;20054;-75
2023/04/02 07:47:48;;;;;;;5.22;4.75;;;;;;;3.56;100.00;102152.19;10374814;28;20041;-75
2023/04/02 07:52:49;;;;;;;4.15;3.75;;;;;;;3.80;100.00;102160.13;10374234;28;20030;-75
2023/04/02 07:57:54;;;;;;;5.13;4.03;;;;;;;3.40;100.00;102165.06;10389258;28;20437;-75
2023/04/02 08:02:55;;;;;;;5.20;4.60;;;;;;;3.59;100.00;102165.34;10389371;28;20065;-76
2023/04/02 08:07:55;;;;;;;13.25;4.75;;;;;;;3.96;100.00;102168.63;10374254;28;20069;-75
2023/04/02 08:12:56;;;;;;;4.95;4.30;;;;;;;4.22;100.00;102180.91;10374279;28;20030;-75
2023/04/02 08:17:56;;;;;;;8.88;4.32;;;;;;;4.07;100.00;102194.56;10374103;28;20034;-74
2023/04/02 08:22:57;;;;;;;5.47;3.97;;;;;;;3.87;100.00;102217.59;10373686;28;20413;-76
2023/04/02 08:27:57;;;;;;;10.38;4.20;;;;;;;3.66;100.00;102214.75;10374364;28;20057;-76
2023/04/02 08:32:57;;;;;;;11.20;3.97;;;;;;;3.96;100.00;102227.59;10374929;28;20061;-76
2023/04/02 08:37:58;;;;;;;7.97;3.67;;;;;;;3.67;100.00;102226.31;10373848;28;20049;-74
2023/04/02 08:43:17;;;;;;;5.15;3.83;;;;;;;3.99;100.00;102244.38;10373587;28;20084;-74
2023/04/02 08:48:17;;;;;;;5.00;3.75;;;;;;;3.99;100.00;102244.38;10373792;28;20091;-77
2023/04/02 08:53:24;;;;;;;8.10;4.13;;;;;;;4.38;100.00;102253.75;10397046;28;20080;-75
2023/04/02 08:58:41;;;;;;;3.38;3.10;;;;;;;4.33;100.00;102275.56;10382722;28;20034;-75
2023/04/02 09:03:46;;;;;;;7.95;4.88;;;;;;;4.33;100.00;102277.41;10395266;28;20069;-74
2023/04/02 09:08:47;;;;;;;6.45;3.83;;;;;;;4.79;100.00;102279.91;10395925;28;20040;-75
2023/04/02 09:13:56;;;;;;;8.07;4.28;;;;;;;5.11;100.00;102296.03;10395513;28;20057;-75
2023/04/02 09:18:56;;;;;;;10.57;3.22;;;;;;;5.62;100.00;102294.47;10396043;28;20038;-75
2023/04/02 09:23:57;;;;;;;1.77;1.70;;;;;;;7.08;100.00;102295.91;10396005;28;20125;-75
2023/04/02 09:29:36;;;;;;;5.25;3.58;;;;;;;8.91;100.00;102303.69;10380378;28;20081;-75
2023/04/02 09:34:36;;;;;;;5.38;2.00;;;;;;;8.65;100.00;102306.25;10388078;28;20049;-74
2023/04/02 09:39:37;;;;;;;4.22;2.72;;;;;;;8.76;100.00;102316.84;10380226;28;20077;-76
2023/04/02 09:44:37;;;;;;;5.72;2.65;;;;;;;9.41;100.00;102322.09;10378518;28;20037;-75
2023/04/02 09:49:38;;;;;;;7.40;2.90;;;;;;;8.88;100.00;102320.19;10339220;28;20058;-75
2023/04/02 09:54:41;;;;;;;7.90;4.28;;;;;;;9.72;100.00;102329.78;10394412;28;20033;-76
2023/04/02 09:59:42;;;;;;;4.18;2.88;;;;;;;10.18;100.00;102341.28;10377218;28;20045;-77
2023/04/02 10:04:43;;;;;;;4.05;2.63;;;;;;;10.06;100.00;102364.19;10393934;28;20038;-77
2023/04/02 10:09:44;;;;;;;2.35;2.22;;;;;;;9.54;100.00;102338.75;10394722;28;20041;-77
2023/04/02 10:14:45;;;;;;;7.80;3.20;;;;;;;9.30;100.00;102365.56;10378766;28;20439;-77
2023/04/02 10:20:05;;;;;;;6.90;2.05;;;;;;;9.31;100.00;102367.25;10393752;28;20104;-78
2023/04/02 10:25:15;;;;;;;3.72;2.05;;;;;;;10.19;100.00;102364.63;10378354;28;20040;-76
2023/04/02 10:30:28;;;;;;;11.93;3.90;;;;;;;9.57;100.00;102370.03;10377037;28;20144;-76
2023/04/02 10:35:56;;;;;;;6.30;3.38;;;;;;;9.92;100.00;102387.25;10377472;28;20034;-76
2023/04/02 10:41:00;;;;;;;4.97;3.55;;;;;;;10.20;99.43;102396.09;10393933;28;20068;-76
2023/04/02 10:46:20;;;;;;;1.88;1.77;;;;;;;11.12;100.00;102414.41;10378363;28;20120;-75
2023/04/02 10:51:38;;;;;;;4.72;2.63;;;;;;;10.84;95.84;102430.03;10376640;28;20113;-75
2023/04/02 10:56:38;;;;;;;4.43;2.40;;;;;;;10.04;87.56;102426.59;10391722;28;20086;-75
2023/04/02 11:01:39;;;;;;;2.60;2.40;;;;;;;10.17;79.38;102409.94;10391517;28;20034;-74
2023/04/02 11:06:57;;;;;;;4.97;2.50;;;;;;;10.97;84.26;102412.47;10375820;28;20131;-77
2023/04/02 11:11:58;;;;;;;8.10;2.97;;;;;;;11.72;92.30;102402.50;10390450;28;20473;-76
2023/04/02 11:17:00;;;;;;;9.20;2.78;;;;;;;12.53;100.00;102422.50;10375081;28;20125;-75
2023/04/02 11:22:02;;;;;;;4.75;3.03;;;;;;;11.39;71.71;102423.28;10375957;28;20042;-75
2023/04/02 11:27:08;;;;;;;2.28;2.08;;;;;;;11.91;90.53;102422.22;10390500;28;20485;-76
2023/04/02 11:32:22;;;;;;;3.97;2.35;;;;;;;11.80;76.92;102416.06;10374518;28;20104;-76
2023/04/02 11:37:50;;;;;;;8.98;1.75;;;;;;;12.03;70.15;102432.59;10315649;28;20129;-74
2023/04/02 11:42:51;;;;;;;5.35;2.58;;;;;;;11.85;80.02;102445.47;10373502;28;20046;-75
2023/04/02 11:48:02;;;;;;;2.33;2.13;;;;;;;12.76;75.46;102434.34;10375053;28;20037;-74
2023/04/02 11:53:06;;;;;;;5.68;2.53;;;;;;;12.89;74.96;102416.59;10374765;28;20057;-75
2023/04/02 11:58:22;;;;;;;9.90;2.72;;;;;;;13.10;80.90;102452.22;10373764;28;20026;-75
2023/04/02 12:03:31;;;;;;;4.38;2.45;;;;;;;13.23;74.36;102455.22;10373690;28;20034;-75
2023/04/02 12:08:54;;;;;;;5.85;2.72;;;;;;;13.49;65.63;102468.56;10374206;28;20040;-76
2023/04/02 12:13:57;;;;;;;6.03;2.90;;;;;;;13.55;68.68;102460.72;10373253;28;20026;-75
2023/04/02 12:18:57;;;;;;;12.55;2.40;;;;;;;13.64;64.85;102475.97;10388529;28;20044;-78
2023/04/02 12:23:58;;;;;;;5.43;2.38;;;;;;;13.75;62.01;102469.25;10389620;28;20073;-76
2023/04/02 12:29:24;;;;;;;2.75;1.98;;;;;;;13.64;64.02;102465.09;10372254;28;20072;-77
2023/04/02 12:34:27;;;;;;;3.83;2.00;;;;;;;13.94;62.24;102472.38;10389706;28;20070;-79
2023/04/02 12:39:28;;;;;;;1.95;1.80;;;;;;;14.03;60.10;102475.88;10388668;28;20279;-79
2023/04/02 12:44:29;;;;;;;4.10;2.10;;;;;;;13.85;65.93;102478.06;10388982;28;20072;-78
2023/04/02 12:49:39;;;;;;;4.88;1.73;;;;;;;13.55;62.39;102480.59;10372028;28;20124;-77
2023/04/02 12:54:50;;;;;;;2.72;2.45;;;;;;;13.37;62.06;102499.06;10388354;28;20033;-75
2023/04/02 12:59:51;;;;;;;3.15;2.15;;;;;;;13.85;63.97;102506.13;10371731;28;20104;-75
2023/04/02 13:05:00;;;;;;;3.75;2.40;;;;;;;14.33;76.01;102505.97;10389555;28;20030;-78
2023/04/02 13:10:24;;;;;;;6.18;2.92;;;;;;;14.56;70.99;102501.34;10328000;28;20129;-78
2023/04/02 13:15:28;;;;;;;2.38;2.10;;;;;;;14.54;68.13;102506.13;10371538;28;20129;-77
2023/04/02 13:20:35;;;;;;;2.38;2.10;;;;;;;14.79;62.96;102493.09;10371096;28;20030;-75
2023/04/02 13:25:35;;;;;;;3.45;2.25;;;;;;;14.05;57.15;102511.13;10389352;28;20038;-76
2023/04/02 13:30:35;;;;;;;5.25;2.92;;;;;;;13.29;54.73;102513.56;10372386;28;20046;-76
2023/04/02 13:35:36;;;;;;;2.42;2.22;;;;;;;13.01;65.54;102508.50;10372279;28;20026;-74
2023/04/02 13:40:36;;;;;;;5.55;2.20;;;;;;;13.43;58.15;102510.13;10362693;28;20026;-77
2023/04/02 13:45:37;;;;;;;2.92;2.03;;;;;;;13.07;69.39;102522.44;10361714;28;20504;-75
2023/04/02 13:50:37;;;;;;;2.50;2.28;;;;;;;13.30;71.78;102517.13;10378228;28;20034;-78
2023/04/02 13:55:39;;;;;;;4.10;2.55;;;;;;;12.84;57.48;102531.34;10380141;28;20077;-75
2023/04/02 14:00:39;;;;;;;5.88;2.67;;;;;;;12.93;60.71;102537.63;10378265;28;20065;-76
2023/04/02 14:05:52;;;;;;;4.22;1.73;;;;;;;13.17;59.21;102542.13;10361094;28;20030;-74
2023/04/02 14:11:08;;;;;;;2.75;2.03;;;;;;;13.03;66.02;102544.56;10379031;28;20041;-78
2023/04/02 14:16:31;;;;;;;5.30;2.15;;;;;;;13.27;60.64;102540.09;10377816;28;20042;-78
2023/04/02 14:21:42;;;;;;;6.05;2.10;;;;;;;13.21;56.94;102559.81;10377552;28;20107;-77
2023/04/02 14:27:01;;;;;;;2.10;1.88;;;;;;;13.05;72.22;102560.72;10377668;28;20030;-75
2023/04/02 14:32:11;;;;;;;2.45;2.00;;;;;;;13.11;63.81;102554.53;10375207;28;20077;-78
2023/04/02 14:37:38;;;;;;;4.38;2.38;;;;;;;12.83;65.63;102572.28;10391595;28;20386;-75
2023/04/02 14:42:43;;;;;;;4.18;2.58;;;;;;;12.78;58.12;102570.94;10393603;28;20049;-75
2023/04/02 14:47:46;;;;;;;3.25;2.40;;;;;;;12.15;59.29;102568.00;10390557;28;20113;-77
2023/04/02 14:52:50;;;;;;;4.32;1.90;;;;;;;12.30;68.24;102579.94;10375306;28;20465;-75
2023/04/02 14:57:52;;;;;;;4.72;2.35;;;;;;;11.94;64.78;102572.06;10392323;28;20062;-76
2023/04/02 15:03:14;;;;;;;4.47;1.85;;;;;;;11.01;64.34;102582.78;10376639;28;20060;-75
2023/04/02 15:08:26;;;;;;;6.90;2.72;;;;;;;10.52;72.33;102584.25;10376174;28;20042;-77
2023/04/02 15:13:41;;;;;;;3.83;2.35;;;;;;;10.01;74.26;102597.41;10376489;28;20376;-75
2023/04/02 15:18:42;;;;;;;3.20;1.90;;;;;;;9.75;73.12;102597.28;10389667;28;20045;-76
2023/04/02 15:24:00;;;;;;;1.83;1.58;;;;;;;9.71;73.90;102598.59;10375362;28;20449;-76
2023/04/02 15:29:23;;;;;;;5.05;2.60;;;;;;;9.17;71.46;102592.13;10390307;28;20448;-75
2023/04/02 15:34:49;;;;;;;5.85;2.53;;;;;;;9.01;75.96;102588.16;10390730;28;20194;-75
2023/04/02 15:40:21;;;;;;;1.67;1.30;;;;;;;9.23;77.78;102594.25;10369060;28;20540;-75
2023/04/02 15:45:31;;;;;;;2.03;1.92;;;;;;;9.08;77.49;102593.84;10362975;28;20037;-75
2023/04/02 15:50:53;;;;;;;1.50;1.40;;;;;;;9.02;78.56;102597.13;10389561;28;20088;-75
2023/04/02 15:56:00;;;;;;;6.35;2.22;;;;;;;9.10;81.19;102610.78;10374824;28;20041;-75
2023/04/02 16:01:16;;;;;;;1.98;1.88;;;;;;;9.02;79.49;102603.38;10374815;28;20030;-75
2023/04/02 16:06:22;;;;;;;4.93;1.73;;;;;;;8.83;76.62;102615.06;10374562;28;20029;-78
2023/04/02 16:11:23;;;;;;;2.38;1.73;;;;;;;8.82;78.86;102621.47;10390181;28;20030;-76
2023/04/02 16:16:33;;;;;;;4.70;2.65;;;;;;;8.83;78.36;102633.97;10372867;28;20046;-77
2023/04/02 16:21:37;;;;;;;2.55;1.70;;;;;;;8.68;74.65;102615.66;10374035;28;20041;-75
2023/04/02 16:26:41;;;;;;;2.38;1.65;;;;;;;8.71;83.51;102634.28;10391046;28;20062;-75
2023/04/02 16:31:49;;;;;;;2.53;2.33;;;;;;;8.82;82.60;102636.84;10390004;28;20046;-76
2023/04/02 16:37:11;;;;;;;1.90;1.58;;;;;;;8.73;80.04;102656.59;10389094;28;20038;-76
2023/04/02 16:42:14;;;;;;;3.85;1.80;;;;;;;8.64;81.67;102647.50;10373001;28;20036;-77
2023/04/02 16:47:21;;;;;;;2.88;2.33;;;;;;;8.57;82.65;102652.59;10388457;28;20033;-76
2023/04/02 16:52:32;;;;;;;2.10;1.90;;;;;;;8.68;86.43;102665.13;10373704;28;20034;-75
2023/04/02 16:57:52;;;;;;;3.60;2.22;;;;;;;8.68;86.48;102675.94;10372139;28;20548;-76
2023/04/02 17:03:11;;;;;;;1.73;1.63;;;;;;;8.52;84.40;102678.31;10387268;28;20052;-75
2023/04/02 17:08:29;;;;;;;4.40;2.15;;;;;;;8.41;83.80;102679.31;10373198;28;20112;-75
2023/04/02 17:13:43;;;;;;;1.80;1.70;;;;;;;8.43;85.54;102696.25;10395538;28;20032;-77
2023/04/02 17:18:46;;;;;;;3.28;2.08;;;;;;;8.34;85.22;102697.88;10379944;28;20116;-76
2023/04/02 17:23:59;;;;;;;6.60;2.15;;;;;;;8.29;85.97;102704.69;10380124;28;20034;-77
2023/04/02 17:29:00;;;;;;;3.05;1.73;;;;;;;8.27;89.38;102714.78;10377646;28;20030;-75
2023/04/02 17:34:17;;;;;;;3.40;1.40;;;;;;;8.07;85.65;102719.25;10378947;28;20130;-75
2023/04/02 17:39:22;;;;;;;;;;;;;;;8.07;88.65;102733.59;10396495;28;20095;-76
2023/04/02 17:44:45;;;;;;;3.80;3.20;;;;;;;8.01;90.46;102738.66;10378663;28;19960;-75
2023/04/02 17:50:03;;;;;;;4.85;3.97;;;;;;;7.98;93.20;102741.66;10381084;28;20530;-76
2023/04/02 17:55:06;;;;;;;2.33;1.65;;;;;;;7.83;92.70;102749.25;10394068;28;20084;-75
2023/04/02 18:00:29;;;;;;;1.73;1.60;;;;;;;7.71;94.74;102761.94;10377835;28;20041;-76
2023/04/02 18:05:33;;;;;;;2.35;1.55;;;;;;;7.59;96.29;102760.31;10379493;28;20500;-74
2023/04/02 18:10:37;;;;;;;7.50;2.05;;;;;;;7.46;96.50;102765.91;10377627;28;20132;-75
2023/04/02 18:15:59;;;;;;;1.65;1.50;;;;;;;7.36;97.29;102782.00;10393976;28;20371;-78
2023/04/02 18:21:12;;;;;;;2.42;1.67;;;;;;;7.23;98.28;102790.28;10378741;28;20500;-75
2023/04/02 18:26:29;;;;;;;4.25;2.30;;;;;;;7.13;99.85;102797.41;10378795;28;20068;-75
2023/04/02 18:31:48;;;;;;;3.72;2.25;;;;;;;6.99;100.00;102795.88;10377251;28;20056;-75
2023/04/02 18:37:11;;;;;;;4.20;1.95;;;;;;;6.93;100.00;102817.09;10392178;28;20250;-75
2023/04/02 18:42:33;;;;;;;2.50;1.95;;;;;;;6.80;100.00;102821.78;10375758;28;20036;-75
2023/04/02 18:47:45;;;;;;;4.35;1.90;;;;;;;6.68;100.00;102824.47;10376879;28;20382;-75
2023/04/02 18:52:45;;;;;;;13.15;2.33;;;;;;;6.55;100.00;102839.91;10376719;28;20026;-75
2023/04/02 18:57:48;;;;;;;2.20;2.00;;;;;;;6.50;100.00;102837.56;10376021;28;20033;-76
2023/04/02 19:02:56;;;;;;;5.60;2.38;;;;;;;6.42;100.00;102839.19;10360399;28;20044;-75
2023/04/02 19:08:20;;;;;;;1.77;1.67;;;;;;;6.32;100.00;102846.25;10376766;28;20085;-75
2023/04/02 19:13:20;;;;;;;6.72;2.30;;;;;;;6.24;100.00;102860.34;10391810;28;20481;-75
2023/04/02 19:18:48;;;;;;;1.90;1.80;;;;;;;6.05;100.00;102859.09;10376985;28;20116;-76
2023/04/02 19:24:15;;;;;;;;;;;;;;;5.90;100.00;102879.06;10389267;28;20507;-76
2023/04/02 19:29:43;;;;;;;2.42;2.22;;;;;;;5.74;100.00;102876.72;10372746;28;19956;-74
2023/04/02 19:34:55;;;;;;;1.77;1.67;;;;;;;5.68;100.00;102884.38;10373280;28;20033;-74
2023/04/02 19:40:06;;;;;;;8.63;3.38;;;;;;;5.65;100.00;102890.84;10389712;28;20037;-74
2023/04/02 19:45:31;;;;;;;2.67;2.33;;;;;;;5.54;100.00;102888.09;10376258;28;20104;-75
2023/04/02 19:50:31;;;;;;;3.10;2.20;;;;;;;5.48;100.00;102908.22;10368989;28;20108;-75
2023/04/02 19:55:31;;;;;;;3.63;3.33;;;;;;;5.37;100.00;102908.19;10375614;28;20080;-77
2023/04/02 20:00:32;;;;;;;7.55;2.90;;;;;;;5.24;100.00;102913.63;10390193;28;20545;-76
2023/04/02 20:05:32;;;;;;;2.50;2.30;;;;;;;5.18;100.00;102921.28;10373760;28;20037;-76
2023/04/02 20:10:33;;;;;;;2.58;2.33;;;;;;;5.18;100.00;102924.81;10373645;28;20048;-75
2023/04/02 20:15:34;;;;;;;3.38;3.08;;;;;;;5.23;100.00;102932.50;10374497;28;20046;-75
2023/04/02 20:20:35;;;;;;;3.45;3.13;;;;;;;5.08;100.00;102924.63;10375331;28;20163;-75
2023/04/02 20:25:35;;;;;;;3.58;2.65;;;;;;;5.09;100.00;102934.38;10372796;28;20060;-76
2023/04/02 20:30:35;;;;;;;6.93;3.03;;;;;;;5.11;100.00;102948.56;10389319;28;20086;-74
2023/04/02 20:35:36;;;;;;;6.60;2.28;;;;;;;5.15;100.00;102957.25;10372799;28;20061;-74
2023/04/02 20:40:40;;;;;;;9.00;3.58;;;;;;;5.16;100.00;102953.59;10373373;28;20033;-74
2023/04/02 20:45:40;;;;;;;3.28;2.42;;;;;;;5.12;100.00;102961.03;10377214;28;20513;-74
2023/04/02 20:50:42;;;;;;;4.32;2.97;;;;;;;5.15;100.00;102968.00;10397410;28;20038;-74
2023/04/02 20:55:44;;;;;;;4.22;2.50;;;;;;;5.11;100.00;102977.25;10381658;28;20060;-75
2023/04/02 21:00:45;;;;;;;7.05;3.22;;;;;;;5.01;100.00;102974.38;10380210;28;20466;-76
2023/04/02 21:05:46;;;;;;;5.60;2.88;;;;;;;5.10;100.00;102988.94;10380007;28;20038;-75
2023/04/02 21:10:46;;;;;;;3.35;3.05;;;;;;;5.04;100.00;102984.00;10381003;28;20405;-75
2023/04/02 21:15:46;;;;;;;7.10;2.60;;;;;;;5.02;100.00;102996.72;10380290;28;20030;-75
2023/04/02 21:21:01;;;;;;;3.63;3.33;;;;;;;4.93;100.00;103000.06;10380652;28;20458;-75
2023/04/02 21:26:04;;;;;;;3.63;2.65;;;;;;;4.92;100.00;103007.25;10379079;28;20037;-74
2023/04/02 21:31:09;;;;;;;3.83;2.92;;;;;;;4.83;100.00;103014.13;10380732;28;20081;-74
2023/04/02 21:36:12;;;;;;;7.88;2.45;;;;;;;4.80;100.00;103017.03;10379508;28;20124;-75
2023/04/02 21:41:23;;;;;;;2.55;2.38;;;;;;;4.71;100.00;103016.81;10378746;28;20084;-74
2023/04/02 21:46:25;;;;;;;2.55;1.88;;;;;;;4.67;100.00;103018.84;10395056;28;20374;-74
2023/04/02 21:51:36;;;;;;;2.42;2.13;;;;;;;4.63;100.00;103012.84;10378360;28;20038;-75
2023/04/02 21:56:38;;;;;;;5.97;2.22;;;;;;;4.59;100.00;103018.50;10377665;28;20060;-74
2023/04/02 22:01:43;;;;;;;1.95;1.60;;;;;;;4.41;100.00;103015.28;10395501;28;20041;-75
2023/04/02 22:06:43;;;;;;;9.02;3.30;;;;;;;4.38;100.00;103020.88;10379386;28;20041;-75
2023/04/02 22:11:49;;;;;;;4.00;2.30;;;;;;;4.34;100.00;103022.91;10379121;28;20048;-75
2023/04/02 22:16:50;;;;;;;6.40;2.73;;;;;;;4.20;100.00;103020.28;10378770;28;20072;-75
2023/04/02 22:21:51;;;;;;;4.28;2.63;;;;;;;4.14;100.00;103031.41;10378529;28;20065;-75
2023/04/02 22:26:52;;;;;;;2.30;2.20;;;;;;;4.13;100.00;103024.34;10378613;28;20022;-75
2023/04/02 22:31:52;;;;;;;5.15;2.35;;;;;;;4.08;100.00;103023.78;10378392;28;20478;-75
2023/04/02 22:36:53;;;;;;;5.22;2.30;;;;;;;4.02;100.00;103024.19;10377337;28;20034;-75
2023/04/02 22:41:53;;;;;;;4.25;3.13;;;;;;;3.91;100.00;103017.72;10377494;28;20049;-74
2023/04/02 22:46:54;;;;;;;7.15;2.88;;;;;;;3.82;100.00;103023.69;10378014;28;20034;-75
2023/04/02 22:51:54;;;;;;;2.10;1.98;;;;;;;3.75;100.00;103022.38;10379072;28;20034;-75
2023/04/02 22:56:55;;;;;;;4.20;2.42;;;;;;;3.62;100.00;103025.00;10376605;28;20171;-75
2023/04/02 23:01:55;;;;;;;3.17;2.58;;;;;;;3.57;100.00;103024.44;10392947;28;20429;-76
2023/04/02 23:06:56;;;;;;;2.28;2.17;;;;;;;3.52;100.00;103037.28;10377179;28;20495;-77
2023/04/02 23:11:56;;;;;;;2.72;2.53;;;;;;;3.49;100.00;103035.66;10376601;28;20038;-74
2023/04/02 23:16:56;;;;;;;2.95;2.65;;;;;;;3.46;100.00;103037.69;10392809;28;20029;-75
2023/04/02 23:21:57;;;;;;;3.08;2.58;;;;;;;3.50;100.00;103039.19;10375606;28;20096;-75
2023/04/02 23:26:57;;;;;;;1.55;1.52;;;;;;;3.40;100.00;103048.78;10375983;28;20030;-74
2023/04/02 23:31:58;;;;;;;2.55;2.35;;;;;;;3.26;100.00;103044.31;10376087;28;20514;-74